TAP66 EHAM-EDDF
Flight info
| Callsign | TAP66 |
|---|---|
| Flight time | 0h 47m |
| Altitude | 35000 |
| Route | EDUPO Z739 MISGO DCT DIXAT DIXAT1A |
| Aircraft | A343/H-SDE2E3FGHIJ4J5M1RWXY/LB1D1 |
Departure
| Time | 2026-05-06 09:26 |
|---|---|
| Airport | Amsterdam Airport Schiphol (EHAM) |
Arrival
| Time | 2026-05-06 10:13 |
|---|---|
| Airport | Frankfurt Main Airport (EDDF) |
| Time | Latitude | Longitude | Altitude | Speed | Heading |
|---|---|---|---|---|---|
| 2026-05-06 08:57 | 52.31155 | 4.75605 | 3 ft | 0 kts | 87° |
| 2026-05-06 09:10 | 52.31153 | 4.75569 | 4 ft | 4 kts | 82° |
| 2026-05-06 09:10 | 52.31149 | 4.75525 | 4 ft | 4 kts | 75° |
| 2026-05-06 09:10 | 52.31141 | 4.75483 | 5 ft | 4 kts | 66° |
| 2026-05-06 09:10 | 52.31130 | 4.75449 | 6 ft | 2 kts | 57° |
| 2026-05-06 09:11 | 52.31141 | 4.75461 | 5 ft | 4 kts | 24° |
| 2026-05-06 09:11 | 52.31168 | 4.75466 | 4 ft | 4 kts | 1° |
| 2026-05-06 09:11 | 52.31195 | 4.75464 | 3 ft | 4 kts | 357° |
| 2026-05-06 09:11 | 52.31221 | 4.75461 | 3 ft | 4 kts | 356° |
| 2026-05-06 09:12 | 52.31248 | 4.75458 | 3 ft | 4 kts | 356° |
| 2026-05-06 09:12 | 52.31275 | 4.75455 | 3 ft | 4 kts | 356° |
| 2026-05-06 09:12 | 52.31302 | 4.75452 | 3 ft | 4 kts | 356° |
| 2026-05-06 09:12 | 52.31313 | 4.75451 | 3 ft | 1 kts | 357° |
| 2026-05-06 09:16 | 52.31315 | 4.75451 | 3 ft | 1 kts | 357° |
| 2026-05-06 09:16 | 52.31337 | 4.75449 | 3 ft | 5 kts | 356° |
| 2026-05-06 09:16 | 52.31387 | 4.75443 | 3 ft | 9 kts | 354° |
| 2026-05-06 09:17 | 52.31421 | 4.75369 | 3 ft | 10 kts | 275° |
| 2026-05-06 09:17 | 52.31419 | 4.75225 | 3 ft | 15 kts | 268° |
| 2026-05-06 09:17 | 52.31412 | 4.75026 | 3 ft | 20 kts | 267° |
| 2026-05-06 09:17 | 52.31404 | 4.74776 | 3 ft | 24 kts | 267° |
| 2026-05-06 09:18 | 52.31395 | 4.74487 | 3 ft | 27 kts | 267° |
| 2026-05-06 09:18 | 52.31385 | 4.74213 | 3 ft | 21 kts | 266° |
| 2026-05-06 09:18 | 52.31301 | 4.74130 | 3 ft | 17 kts | 183° |
| 2026-05-06 09:18 | 52.31174 | 4.74119 | 3 ft | 19 kts | 183° |
| 2026-05-06 09:19 | 52.31039 | 4.74107 | 3 ft | 20 kts | 184° |
| 2026-05-06 09:19 | 52.30893 | 4.74093 | 3 ft | 22 kts | 182° |
| 2026-05-06 09:19 | 52.30742 | 4.74083 | 3 ft | 20 kts | 184° |
| 2026-05-06 09:19 | 52.30602 | 4.74067 | 3 ft | 21 kts | 183° |
| 2026-05-06 09:20 | 52.30452 | 4.74055 | 3 ft | 22 kts | 183° |
| 2026-05-06 09:20 | 52.30375 | 4.74038 | 3 ft | 1 kts | 194° |
| 2026-05-06 09:20 | 52.30351 | 4.74024 | 3 ft | 8 kts | 201° |
| 2026-05-06 09:20 | 52.30330 | 4.74010 | 3 ft | 4 kts | 203° |
| 2026-05-06 09:21 | 52.30320 | 4.74003 | 3 ft | 0 kts | 203° |
| 2026-05-06 09:23 | 52.30312 | 4.73997 | 3 ft | 5 kts | 203° |
| 2026-05-06 09:23 | 52.30244 | 4.73939 | 3 ft | 16 kts | 212° |
| 2026-05-06 09:24 | 52.30192 | 4.73774 | 2 ft | 17 kts | 290° |
| 2026-05-06 09:24 | 52.30259 | 4.73733 | 0 ft | 9 kts | 21° |
| 2026-05-06 09:24 | 52.30312 | 4.73748 | 0 ft | 0 kts | 3° |
| 2026-05-06 09:25 | 52.30352 | 4.73751 | 0 ft | 28 kts | 3° |
| 2026-05-06 09:25 | 52.30776 | 4.73793 | 4 ft | 91 kts | 4° |
| 2026-05-06 09:26 | 52.31569 | 4.73891 | 2 ft | 138 kts | 4° |
| 2026-05-06 09:26 | 52.32588 | 4.73943 | 491 ft | 144 kts | 2° |
| 2026-05-06 09:26 | 52.33578 | 4.73994 | 1091 ft | 146 kts | 17° |
| 2026-05-06 09:26 | 52.34581 | 4.74678 | 1430 ft | 169 kts | 26° |
| 2026-05-06 09:27 | 52.35771 | 4.75543 | 1685 ft | 208 kts | 24° |
| 2026-05-06 09:27 | 52.37216 | 4.76515 | 1990 ft | 234 kts | 25° |
| 2026-05-06 09:27 | 52.38589 | 4.78128 | 2633 ft | 250 kts | 44° |
| 2026-05-06 09:27 | 52.39778 | 4.80118 | 3913 ft | 244 kts | 46° |
| 2026-05-06 09:28 | 52.40945 | 4.82127 | 5006 ft | 244 kts | 46° |
| 2026-05-06 09:28 | 52.41967 | 4.84410 | 5626 ft | 253 kts | 62° |
| 2026-05-06 09:28 | 52.42424 | 4.87209 | 5866 ft | 258 kts | 83° |
| 2026-05-06 09:28 | 52.42471 | 4.90166 | 5887 ft | 261 kts | 88° |
| 2026-05-06 09:29 | 52.42453 | 4.93136 | 6110 ft | 261 kts | 88° |
| 2026-05-06 09:29 | 52.42336 | 4.96148 | 6746 ft | 271 kts | 97° |
| 2026-05-06 09:29 | 52.41666 | 4.99065 | 7738 ft | 279 kts | 120° |
| 2026-05-06 09:29 | 52.40353 | 5.01377 | 8722 ft | 284 kts | 141° |
| 2026-05-06 09:30 | 52.38734 | 5.03299 | 9630 ft | 292 kts | 144° |
| 2026-05-06 09:30 | 52.37040 | 5.05204 | 10351 ft | 303 kts | 144° |
| 2026-05-06 09:30 | 52.35247 | 5.07231 | 10732 ft | 323 kts | 144° |
| 2026-05-06 09:30 | 52.33401 | 5.09519 | 11074 ft | 343 kts | 136° |
| 2026-05-06 09:31 | 52.31706 | 5.12376 | 11556 ft | 356 kts | 131° |
| 2026-05-06 09:31 | 52.30038 | 5.15423 | 12232 ft | 363 kts | 131° |
| 2026-05-06 09:31 | 52.28334 | 5.18545 | 12894 ft | 372 kts | 131° |
| 2026-05-06 09:31 | 52.26603 | 5.21703 | 13704 ft | 375 kts | 132° |
| 2026-05-06 09:32 | 52.24878 | 5.24872 | 14383 ft | 380 kts | 130° |
| 2026-05-06 09:32 | 52.23267 | 5.28304 | 15165 ft | 382 kts | 126° |
| 2026-05-06 09:32 | 52.21726 | 5.31842 | 16019 ft | 383 kts | 126° |
| 2026-05-06 09:32 | 52.20187 | 5.35403 | 16780 ft | 386 kts | 126° |
| 2026-05-06 09:33 | 52.18632 | 5.38993 | 17564 ft | 388 kts | 126° |
| 2026-05-06 09:33 | 52.17066 | 5.42597 | 18304 ft | 391 kts | 126° |
| 2026-05-06 09:33 | 52.15485 | 5.46227 | 18914 ft | 395 kts | 126° |
| 2026-05-06 09:33 | 52.13889 | 5.49884 | 19504 ft | 400 kts | 126° |
| 2026-05-06 09:34 | 52.12265 | 5.53600 | 20095 ft | 404 kts | 126° |
| 2026-05-06 09:34 | 52.10632 | 5.57335 | 20758 ft | 407 kts | 126° |
| 2026-05-06 09:34 | 52.09004 | 5.61050 | 21335 ft | 411 kts | 126° |
| 2026-05-06 09:34 | 52.07339 | 5.64844 | 22034 ft | 412 kts | 127° |
| 2026-05-06 09:35 | 52.05596 | 5.68560 | 22615 ft | 415 kts | 131° |
| 2026-05-06 09:35 | 52.03715 | 5.72138 | 23217 ft | 418 kts | 132° |
| 2026-05-06 09:35 | 52.01805 | 5.75694 | 23745 ft | 419 kts | 132° |
| 2026-05-06 09:35 | 51.99873 | 5.79283 | 24145 ft | 424 kts | 132° |
| 2026-05-06 09:36 | 51.97931 | 5.82892 | 24650 ft | 426 kts | 132° |
| 2026-05-06 09:36 | 51.95978 | 5.86535 | 25057 ft | 430 kts | 131° |
| 2026-05-06 09:36 | 51.94039 | 5.90160 | 25475 ft | 432 kts | 131° |
| 2026-05-06 09:36 | 51.92073 | 5.93832 | 26052 ft | 431 kts | 131° |
| 2026-05-06 09:37 | 51.90099 | 5.97508 | 26472 ft | 433 kts | 131° |
| 2026-05-06 09:37 | 51.88126 | 6.01176 | 27048 ft | 432 kts | 131° |
| 2026-05-06 09:37 | 51.86142 | 6.04858 | 27380 ft | 437 kts | 131° |
| 2026-05-06 09:37 | 51.84135 | 6.08580 | 27713 ft | 442 kts | 131° |
| 2026-05-06 09:38 | 51.82102 | 6.12332 | 27829 ft | 444 kts | 131° |
| 2026-05-06 09:38 | 51.80059 | 6.16076 | 27830 ft | 445 kts | 131° |
| 2026-05-06 09:38 | 51.78006 | 6.19827 | 27832 ft | 445 kts | 131° |
| 2026-05-06 09:38 | 51.75953 | 6.23574 | 27830 ft | 445 kts | 131° |
| 2026-05-06 09:39 | 51.73907 | 6.27308 | 27830 ft | 445 kts | 131° |
| 2026-05-06 09:39 | 51.71859 | 6.31037 | 27824 ft | 443 kts | 131° |
| 2026-05-06 09:39 | 51.69810 | 6.34761 | 27829 ft | 445 kts | 131° |
| 2026-05-06 09:39 | 51.67750 | 6.38502 | 27830 ft | 446 kts | 131° |
| 2026-05-06 09:40 | 51.65718 | 6.42186 | 27828 ft | 447 kts | 131° |
| 2026-05-06 09:40 | 51.63649 | 6.45933 | 27825 ft | 448 kts | 131° |
| 2026-05-06 09:40 | 51.59509 | 6.53430 | 27824 ft | 448 kts | 131° |
| 2026-05-06 09:41 | 51.57440 | 6.57163 | 27815 ft | 447 kts | 131° |
| 2026-05-06 09:41 | 51.55369 | 6.60894 | 27817 ft | 447 kts | 131° |
| 2026-05-06 09:41 | 51.53299 | 6.64616 | 27815 ft | 448 kts | 131° |
| 2026-05-06 09:41 | 51.51223 | 6.68346 | 27813 ft | 447 kts | 131° |
| 2026-05-06 09:42 | 51.49146 | 6.72072 | 27802 ft | 448 kts | 131° |
| 2026-05-06 09:42 | 51.47094 | 6.75747 | 27805 ft | 449 kts | 131° |
| 2026-05-06 09:42 | 51.45007 | 6.79482 | 27805 ft | 449 kts | 131° |
| 2026-05-06 09:42 | 51.42926 | 6.83201 | 27807 ft | 449 kts | 131° |
| 2026-05-06 09:43 | 51.40841 | 6.86921 | 27805 ft | 447 kts | 131° |
| 2026-05-06 09:43 | 51.38805 | 6.90684 | 27796 ft | 447 kts | 128° |
| 2026-05-06 09:43 | 51.36882 | 6.94596 | 27796 ft | 448 kts | 127° |
| 2026-05-06 09:43 | 51.34964 | 6.98535 | 27797 ft | 449 kts | 127° |
| 2026-05-06 09:44 | 51.33033 | 7.02466 | 27792 ft | 450 kts | 128° |
| 2026-05-06 09:44 | 51.31094 | 7.06381 | 27797 ft | 450 kts | 128° |
| 2026-05-06 09:44 | 51.29209 | 7.10156 | 27792 ft | 450 kts | 129° |
| 2026-05-06 09:44 | 51.28545 | 7.11409 | 27751 ft | 450 kts | 131° |
| 2026-05-06 09:45 | 51.26290 | 7.14854 | 27490 ft | 446 kts | 141° |
| 2026-05-06 09:45 | 51.23695 | 7.17528 | 27223 ft | 444 kts | 152° |
| 2026-05-06 09:45 | 51.20938 | 7.19771 | 26941 ft | 444 kts | 153° |
| 2026-05-06 09:45 | 51.18165 | 7.21945 | 26512 ft | 444 kts | 154° |
| 2026-05-06 09:46 | 51.15403 | 7.24109 | 26063 ft | 441 kts | 154° |
| 2026-05-06 09:46 | 51.12666 | 7.26259 | 25639 ft | 438 kts | 154° |
| 2026-05-06 09:46 | 51.09979 | 7.28396 | 25212 ft | 435 kts | 153° |
| 2026-05-06 09:46 | 51.07304 | 7.30600 | 24874 ft | 432 kts | 153° |
| 2026-05-06 09:47 | 51.04648 | 7.32799 | 24791 ft | 431 kts | 153° |
| 2026-05-06 09:47 | 51.01989 | 7.35006 | 24704 ft | 430 kts | 153° |
| 2026-05-06 09:47 | 50.99353 | 7.37181 | 24293 ft | 425 kts | 153° |
| 2026-05-06 09:47 | 50.96738 | 7.39333 | 23752 ft | 422 kts | 154° |
| 2026-05-06 09:48 | 50.94140 | 7.41468 | 23161 ft | 419 kts | 154° |
| 2026-05-06 09:48 | 50.91563 | 7.43582 | 22552 ft | 416 kts | 154° |
| 2026-05-06 09:48 | 50.89011 | 7.45673 | 22023 ft | 412 kts | 154° |
| 2026-05-06 09:48 | 50.86466 | 7.47757 | 21330 ft | 412 kts | 154° |
| 2026-05-06 09:49 | 50.83966 | 7.49804 | 20973 ft | 404 kts | 154° |
| 2026-05-06 09:49 | 50.81465 | 7.51844 | 20953 ft | 405 kts | 154° |
| 2026-05-06 09:49 | 50.78960 | 7.53882 | 20939 ft | 405 kts | 155° |
| 2026-05-06 09:49 | 50.76463 | 7.55915 | 20926 ft | 404 kts | 155° |
| 2026-05-06 09:50 | 50.73963 | 7.57948 | 20610 ft | 403 kts | 155° |
| 2026-05-06 09:50 | 50.71470 | 7.59972 | 19948 ft | 404 kts | 155° |
| 2026-05-06 09:50 | 50.68965 | 7.62005 | 19362 ft | 402 kts | 155° |
| 2026-05-06 09:50 | 50.66518 | 7.63996 | 18999 ft | 392 kts | 155° |
| 2026-05-06 09:51 | 50.64076 | 7.65970 | 18172 ft | 397 kts | 156° |
| 2026-05-06 09:51 | 50.62443 | 7.67288 | 17585 ft | 400 kts | 156° |
| 2026-05-06 09:51 | 50.59180 | 7.69921 | 16463 ft | 393 kts | 155° |
| 2026-05-06 09:51 | 50.56793 | 7.71853 | 15105 ft | 380 kts | 155° |
| 2026-05-06 09:52 | 50.54474 | 7.73721 | 14547 ft | 372 kts | 156° |
| 2026-05-06 09:52 | 50.52166 | 7.75573 | 14398 ft | 372 kts | 156° |
| 2026-05-06 09:52 | 50.49866 | 7.77418 | 14284 ft | 371 kts | 156° |
| 2026-05-06 09:52 | 50.48337 | 7.78644 | 14053 ft | 373 kts | 156° |
| 2026-05-06 09:53 | 50.46016 | 7.80502 | 13631 ft | 377 kts | 156° |
| 2026-05-06 09:53 | 50.43709 | 7.82453 | 13015 ft | 377 kts | 150° |
| 2026-05-06 09:53 | 50.41586 | 7.84849 | 12384 ft | 377 kts | 144° |
| 2026-05-06 09:53 | 50.38947 | 7.88138 | 11704 ft | 348 kts | 144° |
| 2026-05-06 09:54 | 50.37134 | 7.90414 | 11324 ft | 318 kts | 144° |
| 2026-05-06 09:54 | 50.36000 | 7.91834 | 11126 ft | 302 kts | 144° |
| 2026-05-06 09:54 | 50.34408 | 7.93815 | 10849 ft | 293 kts | 145° |
| 2026-05-06 09:54 | 50.32799 | 7.95736 | 10564 ft | 288 kts | 152° |
| 2026-05-06 09:55 | 50.30923 | 7.96567 | 10298 ft | 278 kts | 184° |
| 2026-05-06 09:55 | 50.29127 | 7.95702 | 10037 ft | 271 kts | 214° |
| 2026-05-06 09:55 | 50.27629 | 7.93934 | 9808 ft | 271 kts | 219° |
| 2026-05-06 09:55 | 50.25696 | 7.91442 | 9755 ft | 272 kts | 220° |
| 2026-05-06 09:56 | 50.24716 | 7.90193 | 9731 ft | 267 kts | 218° |
| 2026-05-06 09:56 | 50.22980 | 7.89132 | 9731 ft | 274 kts | 186° |
| 2026-05-06 09:56 | 50.21125 | 7.89750 | 9730 ft | 281 kts | 154° |
| 2026-05-06 09:56 | 50.19730 | 7.91908 | 9739 ft | 292 kts | 122° |
| 2026-05-06 09:57 | 50.19149 | 7.94933 | 9738 ft | 298 kts | 101° |
| 2026-05-06 09:57 | 50.18799 | 7.98113 | 9486 ft | 298 kts | 104° |
| 2026-05-06 09:57 | 50.18315 | 8.01252 | 9080 ft | 297 kts | 108° |
| 2026-05-06 09:57 | 50.17720 | 8.04324 | 8774 ft | 294 kts | 111° |
| 2026-05-06 09:58 | 50.17073 | 8.07312 | 8514 ft | 291 kts | 112° |
| 2026-05-06 09:58 | 50.16391 | 8.10274 | 8257 ft | 290 kts | 113° |
| 2026-05-06 09:58 | 50.15690 | 8.13216 | 8012 ft | 289 kts | 113° |
| 2026-05-06 09:58 | 50.14980 | 8.16136 | 7754 ft | 288 kts | 113° |
| 2026-05-06 09:59 | 50.14266 | 8.19043 | 7510 ft | 286 kts | 113° |
| 2026-05-06 09:59 | 50.13567 | 8.21878 | 7255 ft | 281 kts | 113° |
| 2026-05-06 09:59 | 50.12872 | 8.24679 | 7019 ft | 277 kts | 114° |
| 2026-05-06 09:59 | 50.12180 | 8.27459 | 6754 ft | 274 kts | 114° |
| 2026-05-06 10:00 | 50.11494 | 8.30214 | 6498 ft | 271 kts | 114° |
| 2026-05-06 10:00 | 50.10848 | 8.32946 | 6260 ft | 268 kts | 110° |
| 2026-05-06 10:00 | 50.10439 | 8.35773 | 6004 ft | 267 kts | 99° |
| 2026-05-06 10:00 | 50.10376 | 8.38658 | 5739 ft | 267 kts | 87° |
| 2026-05-06 10:01 | 50.10688 | 8.41494 | 5490 ft | 265 kts | 75° |
| 2026-05-06 10:01 | 50.11272 | 8.44206 | 5217 ft | 264 kts | 71° |
| 2026-05-06 10:01 | 50.11901 | 8.46834 | 5020 ft | 260 kts | 70° |
| 2026-05-06 10:01 | 50.12538 | 8.49473 | 4994 ft | 262 kts | 70° |
| 2026-05-06 10:02 | 50.13180 | 8.52140 | 4993 ft | 263 kts | 70° |
| 2026-05-06 10:02 | 50.13818 | 8.54805 | 4993 ft | 262 kts | 70° |
| 2026-05-06 10:02 | 50.14452 | 8.57454 | 4988 ft | 261 kts | 71° |
| 2026-05-06 10:02 | 50.15087 | 8.60119 | 4991 ft | 263 kts | 70° |
| 2026-05-06 10:03 | 50.15722 | 8.62789 | 4991 ft | 263 kts | 70° |
| 2026-05-06 10:03 | 50.16355 | 8.65450 | 4987 ft | 261 kts | 70° |
| 2026-05-06 10:03 | 50.16990 | 8.68122 | 4991 ft | 263 kts | 70° |
| 2026-05-06 10:03 | 50.17627 | 8.70790 | 4991 ft | 263 kts | 70° |
| 2026-05-06 10:04 | 50.18259 | 8.73454 | 4985 ft | 260 kts | 70° |
| 2026-05-06 10:04 | 50.18866 | 8.76021 | 4979 ft | 253 kts | 70° |
| 2026-05-06 10:04 | 50.19475 | 8.78593 | 4986 ft | 252 kts | 70° |
| 2026-05-06 10:04 | 50.20084 | 8.81150 | 4982 ft | 250 kts | 70° |
| 2026-05-06 10:05 | 50.20683 | 8.83707 | 4984 ft | 251 kts | 71° |
| 2026-05-06 10:05 | 50.21166 | 8.86312 | 4969 ft | 250 kts | 89° |
| 2026-05-06 10:05 | 50.20751 | 8.88861 | 4981 ft | 241 kts | 127° |
| 2026-05-06 10:05 | 50.19501 | 8.90380 | 4975 ft | 221 kts | 166° |
| 2026-05-06 10:06 | 50.18076 | 8.90255 | 4973 ft | 200 kts | 209° |
| 2026-05-06 10:06 | 50.17220 | 8.88757 | 4975 ft | 185 kts | 253° |
| 2026-05-06 10:06 | 50.17340 | 8.86897 | 4996 ft | 168 kts | 291° |
| 2026-05-06 10:06 | 50.17732 | 8.85269 | 4980 ft | 156 kts | 274° |
| 2026-05-06 10:07 | 50.17574 | 8.83652 | 4984 ft | 151 kts | 249° |
| 2026-05-06 10:07 | 50.17087 | 8.82197 | 4993 ft | 152 kts | 240° |
| 2026-05-06 10:07 | 50.16583 | 8.80768 | 4988 ft | 150 kts | 241° |
| 2026-05-06 10:07 | 50.16090 | 8.79338 | 4916 ft | 152 kts | 242° |
| 2026-05-06 10:08 | 50.15473 | 8.77986 | 4519 ft | 157 kts | 229° |
| 2026-05-06 10:08 | 50.14777 | 8.76640 | 3975 ft | 162 kts | 240° |
| 2026-05-06 10:08 | 50.14149 | 8.75163 | 3426 ft | 166 kts | 227° |
| 2026-05-06 10:08 | 50.13349 | 8.73872 | 2960 ft | 163 kts | 222° |
| 2026-05-06 10:09 | 50.12446 | 8.72845 | 2403 ft | 162 kts | 213° |
| 2026-05-06 10:09 | 50.11492 | 8.71940 | 1990 ft | 157 kts | 210° |
| 2026-05-06 10:09 | 50.10599 | 8.71138 | 1834 ft | 136 kts | 211° |
| 2026-05-06 10:09 | 50.09824 | 8.70389 | 1758 ft | 130 kts | 214° |
| 2026-05-06 10:10 | 50.09053 | 8.69622 | 1703 ft | 131 kts | 216° |
| 2026-05-06 10:10 | 50.08402 | 8.68638 | 1656 ft | 131 kts | 233° |
| 2026-05-06 10:10 | 50.07923 | 8.67419 | 1688 ft | 134 kts | 241° |
| 2026-05-06 10:10 | 50.07542 | 8.66092 | 1684 ft | 134 kts | 250° |
| 2026-05-06 10:11 | 50.07243 | 8.64729 | 1640 ft | 132 kts | 246° |
| 2026-05-06 10:11 | 50.06934 | 8.63383 | 1529 ft | 132 kts | 250° |
| 2026-05-06 10:11 | 50.06653 | 8.62026 | 1426 ft | 132 kts | 247° |
| 2026-05-06 10:11 | 50.06316 | 8.60700 | 1333 ft | 132 kts | 245° |
| 2026-05-06 10:12 | 50.05974 | 8.59369 | 1075 ft | 136 kts | 246° |
| 2026-05-06 10:12 | 50.05682 | 8.58002 | 828 ft | 130 kts | 250° |
| 2026-05-06 10:12 | 50.05401 | 8.56675 | 696 ft | 127 kts | 245° |
| 2026-05-06 10:12 | 50.05078 | 8.55425 | 593 ft | 123 kts | 246° |
| 2026-05-06 10:13 | 50.04767 | 8.54158 | 481 ft | 125 kts | 247° |
| 2026-05-06 10:13 | 50.04467 | 8.52870 | 367 ft | 126 kts | 245° |
| 2026-05-06 10:13 | 50.04199 | 8.51826 | 336 ft | 73 kts | 251° |
| 2026-05-06 10:13 | 50.04062 | 8.51489 | 332 ft | 28 kts | 224° |
| 2026-05-06 10:14 | 50.03969 | 8.51381 | 334 ft | 3 kts | 192° |
| 2026-05-06 10:14 | 50.03965 | 8.51381 | 335 ft | 0 kts | 188° |
| 2026-05-06 10:16 | 50.03923 | 8.51392 | 335 ft | 15 kts | 142° |
| 2026-05-06 10:16 | 50.03939 | 8.51583 | 336 ft | 7 kts | 69° |
| 2026-05-06 10:16 | 50.03986 | 8.51780 | 337 ft | 31 kts | 69° |
| 2026-05-06 10:16 | 50.04036 | 8.51982 | 352 ft | 10 kts | 69° |
| 2026-05-06 10:17 | 50.04071 | 8.52128 | 353 ft | 19 kts | 69° |
| 2026-05-06 10:17 | 50.04130 | 8.52363 | 352 ft | 27 kts | 68° |
| 2026-05-06 10:17 | 50.04208 | 8.52670 | 361 ft | 34 kts | 68° |
| 2026-05-06 10:17 | 50.04279 | 8.52942 | 364 ft | 38 kts | 68° |
| 2026-05-06 10:18 | 50.04349 | 8.53291 | 374 ft | 20 kts | 70° |
| 2026-05-06 10:18 | 50.04393 | 8.53502 | 379 ft | 23 kts | 79° |
| 2026-05-06 10:18 | 50.04414 | 8.53794 | 379 ft | 32 kts | 83° |
| 2026-05-06 10:18 | 50.04436 | 8.54139 | 379 ft | 33 kts | 84° |
| 2026-05-06 10:19 | 50.04444 | 8.54516 | 376 ft | 37 kts | 102° |
| 2026-05-06 10:19 | 50.04329 | 8.54752 | 370 ft | 16 kts | 150° |
| 2026-05-06 10:19 | 50.04209 | 8.54831 | 364 ft | 21 kts | 160° |
| 2026-05-06 10:19 | 50.04105 | 8.54891 | 360 ft | 11 kts | 159° |
| 2026-05-06 10:20 | 50.04089 | 8.54900 | 361 ft | 0 kts | 159° |
| 2026-05-06 10:21 | 50.04076 | 8.54908 | 364 ft | 4 kts | 159° |
| 2026-05-06 10:21 | 50.04036 | 8.54940 | 364 ft | 8 kts | 145° |
| 2026-05-06 10:21 | 50.04023 | 8.55030 | 366 ft | 11 kts | 77° |
| 2026-05-06 10:22 | 50.04055 | 8.55177 | 365 ft | 18 kts | 71° |
| 2026-05-06 10:22 | 50.04107 | 8.55386 | 364 ft | 24 kts | 68° |
| 2026-05-06 10:22 | 50.04176 | 8.55655 | 365 ft | 29 kts | 71° |
| 2026-05-06 10:22 | 50.04247 | 8.55926 | 367 ft | 23 kts | 40° |
| 2026-05-06 10:23 | 50.04305 | 8.55946 | 364 ft | 4 kts | 352° |
| 2026-05-06 10:23 | 50.04386 | 8.55913 | 365 ft | 19 kts | 351° |
| 2026-05-06 10:23 | 50.04505 | 8.55945 | 366 ft | 17 kts | 17° |
| 2026-05-06 10:23 | 50.04585 | 8.56084 | 367 ft | 16 kts | 70° |
| 2026-05-06 10:24 | 50.04623 | 8.56251 | 364 ft | 14 kts | 69° |
| 2026-05-06 10:24 | 50.04649 | 8.56355 | 367 ft | 9 kts | 69° |
| 2026-05-06 10:24 | 50.04671 | 8.56450 | 364 ft | 8 kts | 70° |
| 2026-05-06 10:24 | 50.04674 | 8.56463 | 369 ft | 0 kts | 70° |
| 2026-05-06 10:25 | 50.04674 | 8.56466 | 369 ft | 2 kts | 70° |
| 2026-05-06 10:25 | 50.04690 | 8.56503 | 369 ft | 4 kts | 47° |
| 2026-05-06 10:25 | 50.04734 | 8.56514 | 365 ft | 10 kts | 351° |
| 2026-05-06 10:26 | 50.04749 | 8.56509 | 364 ft | 3 kts | 346° |
| 2026-05-06 10:26 | 50.04764 | 8.56502 | 367 ft | 4 kts | 343° |
| 2026-05-06 10:26 | 50.04770 | 8.56499 | 366 ft | 1 kts | 343° |
| 2026-05-06 10:26 | 50.04777 | 8.56495 | 364 ft | 0 kts | 340° |